Tiempo atmosférico en la estación meteorológica de Palma, Puerto, Illes Balears (3 m.)



Fecha
DESCASC
Temp. máxima en grados centígrados (hora)
DESCASC
Temp. mínima en grados centígrados (hora)
DESCASC
Temp. media en grados centígrados
DESCASC
Racha de viento máxima en m/sg (hora)
DESCASC
Velocidad máxima media en intervalos de 10 minutos(hora)
DESCASC
Precipitaciones diarias en mm
DESCASC
Precipitaciones de 00:00 a 06:00 en mm
DESCASC
Precipitaciones de 06:00 a 12:00 en mm
DESCASC
Precipitaciones de 12:00 a 18:00 en mm
DESCASC
Precipitaciones de 18:00 a 24:00 en mm
DESCASC
22-11-2020 19.1 (12:50) 11 (00:30) 15.1 5.83 (17:40) 3.61 (17:10) 0 0 0 0 0
21-11-2020 17.2 (14:00) 9.7 (04:10) 13.5 8.89 (15:00) 4.72 (14:40) 0 0 0 0 0
20-11-2020 18.7 (14:00) 11.3 (23:59) 15 6.94 (09:10) 3.89 (09:10) 0.2 0 0.2 0 0
19-11-2020 22.1 (15:10) 14.2 (00:00) 18.2 3.89 (13:20) 2.5 (14:20) 0 0 0 0 0
18-11-2020 21 (13:40) 12.6 (00:00) 16.8 5 (13:20) 2.78 (15:50) 0 0 0 0 0
17-11-2020 22 (12:50) 14.3 (00:00) 18.2 6.39 (13:20) 3.89 (14:50) 0 0 0 0 0
16-11-2020 22 (03:20) 16.2 (00:00) 19.1 10.28 (10:50) 5.56 (13:00) 0 0 0 0 0
15-11-2020 22.8 (12:40) 16 (00:00) 19.4 7.78 (13:30) 3.06 (11:10) 0 0 0 0 0
14-11-2020 23.1 (13:50) 17.7 (00:00) 20.4 4.72 (01:10) 2.22 (13:10) 0 0 0 0 0
13-11-2020 24.9 (14:10) 16.9 (00:00) 20.9 5.28 (18:10) 3.61 (18:00) 0 0 0 0 0
12-11-2020 23.1 (14:10) 14 (00:00) 18.6 3.89 (16:10) 2.22 (16:10) 0 0 0 0 0
11-11-2020 22.4 (13:00) 12.8 (00:00) 17.6 5 (16:30) 2.78 (16:20) 0 0 0 0 0
10-11-2020 22.4 (14:50) 13.3 (00:00) 17.8 5.83 (17:00) 3.33 (18:40) 0 0 0 0 0
09-11-2020 22.7 (14:30) 14.8 (00:00) 18.8 4.17 (16:40) 2.22 (13:00) 0 0 0 0 0
08-11-2020 22 (13:20) 14.1 (00:00) 18.1 5.28 (15:00) 3.33 (14:50) 0 0 0 0 0
07-11-2020 22.9 (15:20) 16.4 (00:00) 19.6 15.28 (11:40) 5 (09:00) 9.9 0.1 9.8 0 0
06-11-2020 25.1 (13:30) 20 (00:00) 22.6 8.06 (11:10) 4.72 (18:00) 0 0 0 0 0
05-11-2020 21.6 (11:40) 17.5 (00:00) 19.6 9.17 (10:30) 5.83 (10:30) 0 0 0 0 0
04-11-2020 21 (11:40) 16.5 (00:00) 18.8 13.61 (18:50) 7.78 (18:50) 0 0 0 0 0
03-11-2020 24.2 (13:20) 15.1 (00:00) 19.7 8.06 (21:40) 5.28 (21:40) 0 0 0 0 0
02-11-2020 22 (13:20) 14.4 (00:00) 18.2 5.83 (14:10) 2.78 (14:00) 0 0 0 0 0
01-11-2020 22.1 (13:40) 14 (00:00) 18.1 7.22 (14:00) 4.17 (14:30) 0 0 0 0 0
31-10-2020 22.2 (13:20) 13.6 (00:00) 17.9 5.56 (13:50) 3.06 (14:30) 0 0 0 0 0
30-10-2020 22.8 (14:10) 13.7 (00:00) 18.2 7.78 (13:30) 3.89 (13:40) 0 0 0 0 0
29-10-2020 22.6 (13:00) 14.1 (00:00) 18.4 7.22 (16:10) 3.06 (15:40) 0 0 0 0 0
28-10-2020 22.3 (12:40) 12.6 (00:00) 17.4 6.11 (14:20) 3.61 (14:30) 0 0 0 0 0
27-10-2020 22.2 (13:10) 13.7 (00:00) 18 8.61 (10:00) 3.33 (15:20) 0 0 0 0 0

Gráficas

Temp. máximas Temp. mínimas Temp. medias Precipitaciones Rachas de viento máximas Velocidades máximas media en intervalos de 10 minutos

Datos horarios

Fecha y hora oficial Temperatura (ºC) Velocidad del viento (km/h) Dirección del viento Racha (km/h) Dirección de racha Precipitación (mm) Presión (hPa) Tendencia (hPa) Humedad (%)
2020-11-25 23:00:00 14.9 5 Norte 12 Norte 0 1016.8 0.1 76
2020-11-25 22:00:00 14.9 5 Norte 10 Norte 0 1016.8 0.5 75
2020-11-25 21:00:00 15.6 5 Norte 13 Norte 0 1016.8 0.7 70
2020-11-25 20:00:00 15.7 5 Norte 12 Noroeste 0 1016.7 0.6 66
2020-11-25 19:00:00 17.3 6 Este 15 Sudeste 0 1016.3 0 67
2020-11-25 18:00:00 17.5 5 Sudeste 15 Sudeste 0 1016.1 -0.4 64
2020-11-25 17:00:00 17.9 6 Sur 19 Sur 0 1016.1 -0.6 61
2020-11-25 16:00:00 18.4 8 Sur 20 Sur 0 1016.3 -1 59
2020-11-25 15:00:00 18.8 12 Sur 22 Sur 0 1016.5 -1.6 56
2020-11-25 14:00:00 19.4 11 Sur 21 Sur 0 1016.7 -- 58
2020-11-25 13:00:00 20.1 9 Sur -- -- -- 1017.3 -- 51
2020-11-25 12:00:00 19.2 3 Sur 8 Nordeste 0 1018.1 -- 57
2020-11-25 11:00:00 16.6 5 Norte 9 Nordeste 0 1018.8 -- 66
2020-11-25 10:00:00 16.2 4 Norte 10 Noroeste 0 1018.9 -- 67
2020-11-25 09:00:00 15.6 5 Norte 10 Noroeste 0 1018.8 -- 69
2020-11-25 08:00:00 15 4 Norte 10 Norte 0 1018.6 -- 73
2020-11-25 07:00:00 14.7 4 Norte 10 Noroeste 0 1018.5 -- 74
2020-11-25 06:00:00 14.3 7 Noroeste 13 Noroeste 0 1018.5 -- 74
2020-11-25 05:00:00 15 3 Norte 8 Noroeste 0 1018.6 -- 73
2020-11-25 04:00:00 15.3 3 Noroeste 7 Norte 0 1018.7 -- 69
2020-11-25 03:00:00 15.3 2 Norte 9 Norte 0 1019.2 -- 69
2020-11-25 02:00:00 14.9 5 Norte 10 Norte 0 1019.5 -- 69
2020-11-25 01:00:00 15.1 5 Norte 17 Sur 0 1020 -- 67
2020-11-25 00:00:00 17 8 Sur 17 Sur 0 1020.5 -- 60
2020-11-24 23:00:00 17.2 8 Sur 17 Sur 0 1020.9 -- 60
2020-11-24 22:00:00 16.9 7 Sudoeste 20 Sur 0 1021 -- 60
2020-11-24 21:00:00 17 8 Sur 18 Sur 0 1021.2 -- 58
2020-11-24 20:00:00 17 6 Sur 15 Sur 0 1021.3 -- 59
2020-11-24 19:00:00 17.1 5 Sur 16 Sudoeste 0 1021.3 -- 58
2020-11-24 18:00:00 17.1 6 Sur 12 Sudoeste 0 1021.3 -- 59
2020-11-24 17:00:00 17.1 5 Sur 12 Sudoeste 0 1021.3 -- 57
2020-11-24 16:00:00 17.4 5 Sudoeste 15 Sur 0 1021.6 -- 55
2020-11-24 15:00:00 18.7 8 Sur 17 Sudoeste 0 1022 -- 51
2020-11-24 14:00:00 19 6 Sur 15 Sur 0 1022.7 -- 51
2020-11-24 13:00:00 18.9 7 Sur 14 Sur 0 1023.4 -- 56
2020-11-24 12:00:00 18.3 5 Sur 11 Sur 0 1024.3 -- 57
2020-11-24 11:00:00 16.5 3 Este 8 Nordeste 0 1024.9 -- 65
2020-11-24 10:00:00 15.4 4 Nordeste 7 Nordeste 0 1025.1 -- 69
2020-11-24 09:00:00 13.1 4 Norte 8 Nordeste 0 1024.9 -- 79
2020-11-24 08:00:00 10.9 5 Norte 6 Norte 0 1024.8 -- 88
2020-11-24 07:00:00 11.2 3 Nordeste 7 Norte 0 1024.9 -- 86
2020-11-24 06:00:00 11.2 4 Nordeste 8 Nordeste 0 1024.9 -- 86
2020-11-24 05:00:00 10.2 4 Nordeste 6 Nordeste 0 1024.9 -- 88
2020-11-24 04:00:00 10.4 4 Nordeste 6 Nordeste 0 1025.2 -- 86
2020-11-24 03:00:00 10.7 4 Norte 6 Norte 0 1025.5 -- 85
2020-11-24 02:00:00 11.1 4 Norte 6 Norte 0 1025.8 -- 81
2020-11-24 01:00:00 11.3 3 Norte 6 Norte 0 1026.2 -- 79
2020-11-24 00:00:00 11.5 5 Norte 7 Norte 0 1026.6 -- 77
2020-11-23 23:00:00 12.4 3 Norte 8 Noroeste 0 1026.8 -- 74
2020-11-23 22:00:00 13.5 3 Norte 9 Norte 0 1026.9 -- 70
2020-11-23 21:00:00 14 5 Noroeste 13 Noroeste 0 1026.9 -- 66
2020-11-23 20:00:00 14.1 8 Noroeste 15 Noroeste 0 1026.8 -- 65
2020-11-23 19:00:00 14.9 5 Noroeste 8 Noroeste 0 1026.8 -- 64
2020-11-23 18:00:00 15.6 5 Noroeste 8 Noroeste 0 1026.6 -- 61
2020-11-23 17:00:00 16.7 2 Oeste 16 Sudoeste 0 1026.2 -- 56
2020-11-23 16:00:00 17.3 7 Sur 19 Sur 0 1026.1 -- 53
2020-11-23 15:00:00 18.1 6 Sur 17 Sur 0 1026.2 -- 50
2020-11-23 14:00:00 18.6 7 Sudoeste 14 Sur 0 1026.7 -- 47
2020-11-23 13:00:00 18.5 5 Sur 12 Sur 0 1027.1 -- 46
2020-11-23 12:00:00 18 5 Sudeste 8 Sudeste 0 1027.9 -- 49
2020-11-23 11:00:00 16.1 3 Nordeste 7 Este 0 1028.2 -- 57
2020-11-23 10:00:00 15.1 3 Nordeste 6 Este 0 1028.1 -- 63
2020-11-23 09:00:00 13 3 Nordeste 7 Norte 0 1027.7 -- 68
2020-11-23 08:00:00 11.2 2 Norte 8 Norte 0 1027.5 -- 72
2020-11-23 07:00:00 10.8 0 Calma 6 Norte 0 1027.2 -- 77
2020-11-23 06:00:00 11.1 3 Norte 8 Noroeste 0 1026.9 -- 73
2020-11-23 05:00:00 11.1 4 Norte 8 Norte 0 1026.9 -- 72
2020-11-23 04:00:00 12.4 4 Norte 14 Noroeste 0 1026.8 -- 65
2020-11-23 03:00:00 13.1 4 Norte 15 Noroeste 0 1026.8 -- 60
2020-11-23 02:00:00 13.4 7 Noroeste 14 Noroeste 0 1027.1 -- 58
2020-11-23 01:00:00 12.5 5 Noroeste 14 Noroeste 0 1027.1 -- 65
2020-11-23 00:00:00 11.5 2 Norte 13 Noroeste 0 1027.3 -- 73
2020-11-22 23:00:00 13.7 7 Noroeste 15 Noroeste 0 1027.4 -- 57
2020-11-22 22:00:00 12.7 7 Noroeste 14 Noroeste 0 1027.2 -- 60
2020-11-22 21:00:00 13.3 5 Noroeste 10 Norte 0 1027.1 -- 59
2020-11-22 20:00:00 13 3 Norte 10 Norte 0 1027 -- 64
2020-11-22 19:00:00 14 5 Norte 18 Nordeste 0 1026.6 -- 60
2020-11-22 18:00:00 15.2 8 Nordeste 21 Nordeste 0 1026.1 -- 57
2020-11-22 17:00:00 16 9 Nordeste 19 Este 0 1025.7 -- 51
2020-11-22 16:00:00 17.2 5 Noroeste 16 Norte 0 1025.3 -- 47
2020-11-22 15:00:00 17.5 4 Noroeste 17 Sudeste 0 1025.6 -- 48
2020-11-22 14:00:00 17.8 2 Oeste 14 Nordeste 0 1025.7 -- 48
2020-11-22 13:00:00 19.1 6 Este 12 Nordeste 0 1026.3 -- 44
2020-11-22 12:00:00 17.4 4 Este 12 Nordeste 0 1026.9 -- 50
2020-11-22 11:00:00 16.8 5 Este 17 Este 0 1027.4 -- 51
2020-11-22 10:00:00 15.8 6 Nordeste 17 Nordeste 0 1027 -- 54
2020-11-22 09:00:00 14.5 5 Norte 15 Norte 0 1026.9 -- 58
2020-11-22 08:00:00 12.8 6 Norte 13 Noroeste 0 1026.9 -- 63
2020-11-22 07:00:00 12.8 8 Noroeste 15 Noroeste 0 1026.9 -- 63
2020-11-22 06:00:00 12.7 8 Noroeste 14 Noroeste 0 1026.8 -- 64
2020-11-22 05:00:00 13 7 Noroeste 19 Noroeste 0 1026.9 -- 62
2020-11-22 04:00:00 13 9 Noroeste 19 Noroeste 0 1026.7 -- 60
2020-11-22 03:00:00 13 10 Noroeste 17 Noroeste 0 1027 -- 60
2020-11-22 02:00:00 13 8 Noroeste 13 Noroeste 0 1027.2 -- 63
2020-11-22 01:00:00 11.8 6 Noroeste 12 Noroeste 0 1027.7 -- 68
2020-11-22 00:00:00 11.3 2 Norte 6 Oeste 0 1027.7 -- 74
2020-11-21 23:00:00 11.6 4 Noroeste 8 Noroeste 0 1028 -- 69
2020-11-21 22:00:00 11.9 0 Calma 4 Noroeste 0 1028.2 -- 73
2020-11-21 21:00:00 12.2 0 Calma 9 Noroeste 0 1028 -- 67
2020-11-21 20:00:00 13.5 4 Noroeste 7 Norte 0 1027.9 -- 63
2020-11-21 19:00:00 14.1 4 Noroeste 14 Nordeste 0 1027.5 -- 59
2020-11-21 18:00:00 14.9 8 Nordeste 21 Este 0 1027.2 -- 62
2020-11-21 17:00:00 15.9 8 Norte 23 Norte 0 1027.1 -- 53
2020-11-21 16:00:00 16.2 14 Norte 30 Norte 0 1026.6 -- 42
2020-11-21 15:00:00 16.8 16 Norte 32 Nordeste 0 1026.6 -- 35
2020-11-21 14:00:00 17.1 12 Norte 30 Norte 0 1026.7 -- 38
2020-11-21 13:00:00 16.9 10 Norte 28 Norte 0 1027.2 -- 41
2020-11-21 12:00:00 16.5 13 Norte 27 Norte 0 1027.8 -- 39
2020-11-21 11:00:00 16.1 13 Nordeste 21 Nordeste 0 1027.9 -- 43
2020-11-21 10:00:00 15.1 8 Nordeste 15 Nordeste 0 1027.4 -- 48
2020-11-21 09:00:00 13.5 6 Norte 12 Norte 0 1027.6 -- 50
2020-11-21 08:00:00 12.3 7 Nordeste 17 Nordeste 0 1027 -- 56
2020-11-21 07:00:00 10.4 5 Norte 10 Noroeste 0 1026.6 -- 67
2020-11-21 06:00:00 10.5 5 Noroeste 8 Norte 0 1026.2 -- 65
2020-11-21 05:00:00 10.2 3 Norte 8 Norte 0 1026.3 -- 67
2020-11-21 04:00:00 9.8 0 Calma 6 Norte 0 1026.3 -- 73
2020-11-21 03:00:00 10.1 0 Calma 8 Noroeste 0 1026 -- 72
2020-11-21 02:00:00 10.7 0 Calma 8 Noroeste 0 1026.1 -- 70
2020-11-21 01:00:00 10.9 3 Noroeste 8 Norte 0 1026.5 -- 63
2020-11-21 00:00:00 11.3 0 Calma 5 Norte 0 1026.6 -- 65
2020-11-20 23:00:00 12.2 0 Calma 11 Nordeste 0 1026.6 -- 60
2020-11-20 22:00:00 12.3 3 Nordeste 7 Norte 0 1026.6 -- 64
2020-11-20 21:00:00 13 4 Norte 9 Norte 0 1026.4 -- 54
2020-11-20 20:00:00 13.6 4 Norte 17 Este 0 1026 -- 52
2020-11-20 19:00:00 15.4 10 Nordeste 17 Nordeste 0 1025.5 -- 41
2020-11-20 18:00:00 16.1 3 Nordeste 13 Nordeste 0 1024.9 -- 63
2020-11-20 17:00:00 17 3 Noroeste 16 Norte 0 1024.7 -- 61
2020-11-20 16:00:00 18 9 Nordeste 15 Norte 0 1024.8 -- 56
2020-11-20 15:00:00 18.1 2 Norte 11 Sur 0 1025.1 -- 56
2020-11-20 14:00:00 18.6 5 Sur 9 Sudeste 0 1025.3 -- 65
2020-11-20 13:00:00 16.7 0 Calma 16 Nordeste 0 1026 -- 71
2020-11-20 12:00:00 16 6 Nordeste 20 Nordeste 0 1027.3 -- 72
2020-11-20 11:00:00 15.1 5 Nordeste 15 Nordeste 0 1027.3 -- 84
2020-11-20 10:00:00 15.3 5 Norte 25 Nordeste 0 1027.2 -- 77
2020-11-20 09:00:00 15.6 10 Nordeste 25 Nordeste 0.2 1026.8 -- 73
2020-11-20 08:00:00 16 8 Nordeste 15 Nordeste 0 1026.4 -- 73
2020-11-20 07:00:00 16.2 9 Nordeste 16 Nordeste 0 1026.3 -- 69
2020-11-20 06:00:00 16.3 8 Nordeste 17 Nordeste 0 1026.6 -- 68
2020-11-20 05:00:00 16 4 Norte 10 Nordeste 0 1026.8 -- 70
2020-11-20 04:00:00 16 5 Norte 11 Nordeste 0 1026.7 -- 73
2020-11-20 03:00:00 16.2 5 Nordeste 17 Norte 0 1027.1 -- 77
2020-11-20 02:00:00 15.1 0 Calma 7 Norte 0 1027.3 -- 86
2020-11-20 01:00:00 15.2 0 Calma 8 Nordeste 0 1027.5 -- 85
2020-11-20 00:00:00 15 0 Calma 5 Nordeste 0 1027.8 -- 87
2020-11-19 23:00:00 15.6 0 Calma 3 Norte 0 1027.9 -- 85
2020-11-19 22:00:00 16.4 0 Calma 9 Norte 0 1028.1 -- 81
2020-11-19 21:00:00 17.1 3 Noroeste 9 Noroeste 0 1028.2 -- 77
2020-11-19 20:00:00 17.2 0 Calma 14 Norte 0 1028.2 -- 77
2020-11-19 19:00:00 18.5 6 Noroeste 13 Norte 0 1027.7 -- 71
2020-11-19 18:00:00 18.7 0 Calma 5 Sur 0 1027.2 -- 74
2020-11-19 17:00:00 20 2 Sur 8 Sur 0 1026.7 -- 68
2020-11-19 16:00:00 20.9 3 Sudeste 6 Este 0 1027.1 -- 64
2020-11-19 15:00:00 22 4 Sudeste 14 Sur 0 1027.1 -- 61
2020-11-19 14:00:00 20.8 7 Sur 14 Sur 0 1027.6 -- 68
2020-11-19 13:00:00 20.4 8 Sur 14 Sudoeste 0 1028.3 -- 63
2020-11-19 12:00:00 20.1 5 Sur 9 Sur 0 1028.9 -- 63
2020-11-19 11:00:00 19 4 Sudeste 7 Sudeste 0 1029.1 -- 68
2020-11-19 10:00:00 18.2 3 Nordeste 5 Nordeste 0 1028.8 -- 72
2020-11-19 09:00:00 16 3 Nordeste 7 Nordeste 0 1028.6 -- 82
2020-11-19 08:00:00 14.4 4 Nordeste 6 Noroeste 0 1028 -- 88
2020-11-19 07:00:00 14.6 5 Noroeste 9 Noroeste 0 1027.6 -- 87
2020-11-19 06:00:00 15.2 5 Noroeste 9 Norte 0 1027.3 -- 83
2020-11-19 05:00:00 14.5 5 Norte 11 Nordeste 0 1027.1 -- 87
2020-11-19 04:00:00 14.4 4 Norte 6 Nordeste 0 1027.1 -- 90
2020-11-19 03:00:00 15 3 Norte 5 Norte 0 1027.3 -- 87
2020-11-19 02:00:00 15.2 3 Norte 8 Noroeste 0 1027.5 -- 86
2020-11-19 01:00:00 15 0 Calma 10 Noroeste 0 1027.7 -- 85
2020-11-19 00:00:00 15.8 7 Noroeste 11 Noroeste 0 1027.7 -- 80
2020-11-18 23:00:00 15.7 5 Norte 12 Noroeste 0 1027.7 -- 81
2020-11-18 22:00:00 16 6 Noroeste 12 Norte 0 1027.4 -- 80
2020-11-18 21:00:00 15.9 5 Norte 12 Norte 0 1027 -- 81
2020-11-18 20:00:00 16.3 4 Norte 9 Noroeste 0 1027 -- 79
2020-11-18 19:00:00 17.1 2 Norte 6 Norte 0 1026.6 -- 79
2020-11-18 18:00:00 17.9 3 Nordeste 6 Nordeste 0 1026.1 -- 75
2020-11-18 17:00:00 19.3 4 Oeste 18 Sudoeste 0 1026 -- 69
2020-11-18 16:00:00 19.6 8 Sur 18 Sur 0 1026 -- 66
2020-11-18 15:00:00 20.5 8 Sur 16 Sudoeste 0 1026.1 -- 59
2020-11-18 14:00:00 20.6 8 Sur 18 Sudoeste 0 1026.5 -- 58
2020-11-18 13:00:00 20.6 6 Sur 14 Sur 0 1026.9 -- 61
2020-11-18 12:00:00 20.4 4 Sur 8 Sur 0 1027.4 -- 55
2020-11-18 11:00:00 18.2 3 Nordeste 7 Este 0 1027.8 -- 68
2020-11-18 10:00:00 16.8 2 Nordeste 8 Nordeste 0 1027.7 -- 71
2020-11-18 09:00:00 15.4 4 Nordeste 8 Nordeste 0 1027.4 -- 81
2020-11-18 08:00:00 13.9 4 Norte 13 Noroeste 0 1026.8 -- 87
2020-11-18 07:00:00 14 7 Noroeste 13 Noroeste 0 1026.6 -- 81
2020-11-18 06:00:00 12.8 5 Nordeste 8 Nordeste 0 1026.5 -- 89
2020-11-18 05:00:00 12.6 5 Norte 8 Norte 0 1026.3 -- 91
2020-11-18 04:00:00 13.1 4 Nordeste 9 Nordeste 0 1026.1 -- 91
2020-11-18 03:00:00 13.5 4 Norte 7 Norte 0 1026.4 -- 90
2020-11-18 02:00:00 13.7 4 Norte 6 Nordeste 0 1026.5 -- 91
2020-11-18 01:00:00 14 0 Calma 6 Noroeste 0 1026.8 -- 90
2020-11-18 00:00:00 14.6 0 Calma 0 Calma 0 1026.8 -- 88
2020-11-17 23:00:00 15.3 0 Calma 5 Noroeste 0 1026.9 -- 84
2020-11-17 22:00:00 16.1 0 Calma 8 Nordeste 0 1026.8 -- 80
2020-11-17 21:00:00 16.4 3 Norte 12 Norte 0 1026.3 -- 80
2020-11-17 20:00:00 17.3 5 Norte 16 Norte 0 1026 -- 76
2020-11-17 19:00:00 17 3 Norte 8 Norte 0 1025.5 -- 73
2020-11-17 18:00:00 18 5 Noroeste 13 Norte 0 1025.4 -- 69
2020-11-17 17:00:00 19.3 8 Norte 16 Norte 0 1025.2 -- 65
2020-11-17 16:00:00 20.3 10 Norte 21 Norte 0 1024.9 -- 58
2020-11-17 15:00:00 20.7 12 Norte 23 Nordeste 0 1024.7 -- 57
2020-11-17 14:00:00 21.2 10 Norte 23 Norte 0 1025.1 -- 57
2020-11-17 13:00:00 20.5 6 Norte 16 Noroeste 0 1025.6 -- 60
2020-11-17 12:00:00 21.1 6 Sur 15 Sudoeste 0 1026.2 -- 65
2020-11-17 11:00:00 19.7 5 Sudoeste 13 Sudoeste 0 1026.5 -- 70
2020-11-17 10:00:00 18.5 5 Sudeste 10 Sudeste 0 1026.3 -- 75
2020-11-17 09:00:00 16.6 0 Calma 3 Este 0 1025.9 -- 80
2020-11-17 08:00:00 14.8 0 Calma 6 Noroeste 0 1025.4 -- 85
2020-11-17 07:00:00 15.4 0 Calma 5 Norte 0 1024.9 -- 82
2020-11-17 06:00:00 14.7 0 Calma 6 Norte 0 1024.7 -- 82
2020-11-17 05:00:00 14.6 0 Calma 5 Nordeste 0 1024.6 -- 83
2020-11-17 04:00:00 14.5 0 Calma 6 Nordeste 0 1024.5 -- 83
2020-11-17 03:00:00 15.2 3 Norte 8 Noroeste 0 1024.7 -- 79
2020-11-17 02:00:00 15.9 0 Calma 10 Noroeste 0 1024.6 -- 77
2020-11-17 01:00:00 16.3 5 Noroeste 10 Noroeste 0 1025 -- 74
2020-11-17 00:00:00 16.3 4 Norte 12 Norte 0 1025 -- 75
2020-11-16 23:00:00 16.4 5 Norte 11 Noroeste 0 1025.2 -- 74
2020-11-16 22:00:00 16.9 3 Norte 15 Nordeste 0 1025 -- 71
2020-11-16 21:00:00 17.1 5 Norte 13 Nordeste 0 1024.4 -- 71
2020-11-16 20:00:00 17.1 4 Norte 13 Nordeste 0 1023.8 -- 69
2020-11-16 19:00:00 17.5 7 Nordeste 17 Nordeste 0 1023.6 -- 68
2020-11-16 18:00:00 17.7 7 Nordeste 23 Nordeste 0 1022.8 -- 69
2020-11-16 17:00:00 18.4 13 Nordeste 27 Nordeste 0 1022.6 -- 68
2020-11-16 16:00:00 19.2 13 Este 28 Este 0 1021.5 -- 65
2020-11-16 15:00:00 20.3 16 Nordeste 31 Nordeste 0 1021.1 -- 59
2020-11-16 14:00:00 20.2 18 Nordeste 30 Nordeste 0 1020.9 -- 61
2020-11-16 13:00:00 20.7 20 Nordeste 34 Nordeste 0 1020.8 -- 63
2020-11-16 12:00:00 20.7 16 Nordeste 31 Nordeste 0 1021.5 -- 66
2020-11-16 11:00:00 19.9 17 Nordeste 37 Nordeste 0 1021.2 -- 76
2020-11-16 10:00:00 20.7 10 Este 27 Nordeste 0 1020.6 -- 78
2020-11-16 09:00:00 20.9 5 Nordeste 13 Norte 0 1019.6 -- 69
2020-11-16 08:00:00 18.8 0 Calma 6 Norte 0 1018.8 -- 80
2020-11-16 07:00:00 18.6 0 Calma 8 Nordeste 0 1018.1 -- 79
2020-11-16 06:00:00 19.8 0 Calma 12 Sur 0 1017.7 -- 75
2020-11-16 05:00:00 21.4 7 Sur 15 Sur 0 1017.5 -- 68
2020-11-16 04:00:00 21.2 2 Norte 21 Noroeste 0 1017.6 -- 72
2020-11-16 03:00:00 21.6 3 Noroeste 19 Oeste 0 1017.9 -- 66
2020-11-16 02:00:00 18.7 0 Calma 10 Sur 0 1018.3 -- 90
2020-11-16 01:00:00 19.8 5 Sur 10 Sur 0 1018.6 -- 89
2020-11-16 00:00:00 19.1 0 Calma 8 Sudoeste 0 1019 -- 89
2020-11-15 23:00:00 19.4 0 Calma 10 Sudoeste 0 1019.4 -- 88
2020-11-15 22:00:00 19.5 3 Sudoeste 11 Sur 0 1019.8 -- 81
2020-11-15 21:00:00 19.7 4 Sur 17 Oeste 0 1019.7 -- 82
2020-11-15 20:00:00 19.8 2 Sudoeste 14 Sudoeste 0 1019.4 -- 73
2020-11-15 19:00:00 19.5 3 Oeste 16 Oeste 0 1019.3 -- 74
2020-11-15 18:00:00 19.8 5 Sudoeste 14 Sudoeste 0 1019 -- 69
2020-11-15 17:00:00 20.5 6 Sudoeste 22 Sudoeste 0 1018.7 -- 69
2020-11-15 16:00:00 21.5 8 Sudoeste 21 Sudoeste 0 1018.5 -- 64
2020-11-15 15:00:00 22.5 8 Sudoeste 25 Sudoeste 0 1018.5 -- 61
2020-11-15 14:00:00 22.4 8 Oeste 28 Sudoeste 0 1018.8 -- 66
2020-11-15 13:00:00 22.4 8 Sudoeste 25 Oeste 0 1019 -- 64
2020-11-15 12:00:00 21.7 11 Sudoeste 26 Sudoeste 0 1019.5 -- 66
2020-11-15 11:00:00 21.4 6 Sudoeste 22 Sudoeste 0 1019.9 -- 74
2020-11-15 10:00:00 19.1 0 Calma 5 Nordeste 0 1020.1 -- 80
2020-11-15 09:00:00 17.1 0 Calma 5 Nordeste 0 1020 -- 87
2020-11-15 08:00:00 16.2 2 Norte 5 Norte 0 1019.6 -- 91
2020-11-15 07:00:00 16.1 0 Calma 6 Noroeste 0 1019.3 -- 91
2020-11-15 06:00:00 16.4 0 Calma 3 Norte 0 1018.9 -- 90
2020-11-15 05:00:00 16.9 0 Calma 5 Sudoeste 0 1019 -- 89
2020-11-15 04:00:00 17.6 0 Calma 6 Sudoeste 0 1019.1 -- 85
2020-11-15 03:00:00 17.9 0 Calma 8 Sudoeste 0 1019.4 -- 81
2020-11-15 02:00:00 18 0 Calma 3 Norte 0 1019.4 -- 80
2020-11-15 01:00:00 18.2 0 Calma 4 Norte 0 1019.8 -- 80
2020-11-15 00:00:00 18.7 0 Calma 6 Norte 0 1019.8 -- 78
2020-11-14 23:00:00 19.3 2 Sudoeste 5 Sudoeste 0 1020.1 -- 78
2020-11-14 22:00:00 19.2 0 Calma 8 Noroeste 0 1020 -- 78
2020-11-14 21:00:00 19.5 4 Norte 9 Noroeste 0 1019.7 -- 78
2020-11-14 20:00:00 19.9 5 Noroeste 11 Norte 0 1019.8 -- 74
2020-11-14 19:00:00 20.1 5 Norte 10 Norte 0 1019.2 -- 64
2020-11-14 18:00:00 21 3 Sudoeste 8 Sudoeste 0 1019 -- 66
2020-11-14 17:00:00 21.8 5 Norte 11 Nordeste 0 1018.5 -- 58
2020-11-14 16:00:00 22 6 Norte 14 Este 0 1018.6 -- 65
2020-11-14 15:00:00 22.2 6 Sur 16 Sudoeste 0 1018.8 -- 68
2020-11-14 14:00:00 22.6 7 Sur 15 Sur 0 1018.8 -- 63
2020-11-14 13:00:00 22.3 7 Sur 13 Sudoeste 0 1019.3 -- 65
2020-11-14 12:00:00 22.3 6 Sudeste 9 Sudeste 0 1020 -- 68
2020-11-14 11:00:00 21.3 2 Este 7 Nordeste 0 1020.3 -- 68
2020-11-14 10:00:00 20.8 3 Nordeste 9 Nordeste 0 1020.3 -- 69
2020-11-14 09:00:00 19.6 4 Norte 9 Noroeste 0 1019.9 -- 72
2020-11-14 08:00:00 18.1 3 Norte 9 Norte 0 1019.3 -- 79
2020-11-14 07:00:00 17.8 2 Nordeste 8 Norte 0 1019.3 -- 81
2020-11-14 06:00:00 18.3 3 Norte 10 Norte 0 1019.1 -- 78
2020-11-14 05:00:00 18.3 5 Norte 13 Nordeste 0 1018.9 -- 77
2020-11-14 04:00:00 18.2 4 Norte 14 Norte 0 1018.9 -- 77
2020-11-14 03:00:00 18.3 5 Norte 14 Norte 0 1019.5 -- 74
2020-11-14 02:00:00 18.8 6 Norte 17 Noroeste 0 1019.9 -- 74
2020-11-14 01:00:00 18.4 8 Norte 15 Norte 0 1020.3 -- 82
2020-11-14 00:00:00 18.3 6 Norte 13 Norte 0 1020.7 -- 83
2020-11-13 23:00:00 18.4 4 Norte 9 Norte 0 1020.7 -- 77
2020-11-13 22:00:00 18.4 4 Norte 13 Noroeste 0 1020.4 -- 79
2020-11-13 21:00:00 18.3 5 Norte 13 Norte 0 1020.2 -- 79
2020-11-13 20:00:00 19.1 8 Norte 15 Este 0 1020.1 -- 79
2020-11-13 19:00:00 19.8 8 Nordeste 19 Nordeste 0 1019.9 -- 76
2020-11-13 18:00:00 21 13 Nordeste 19 Nordeste 0 1019.2 -- 65
2020-11-13 17:00:00 21.8 8 Este 18 Este 0 1019.1 -- 60
2020-11-13 16:00:00 22.9 9 Este 18 Este 0 1018.8 -- 55
2020-11-13 15:00:00 23.9 9 Este 15 Este 0 1018.8 -- 53
2020-11-13 14:00:00 24.7 6 Este 19 Nordeste 0 1018.8 -- 53
2020-11-13 13:00:00 22.8 7 Nordeste 15 Nordeste 0 1019.7 -- 63
2020-11-13 12:00:00 22.2 8 Nordeste 18 Nordeste 0 1020.4 -- 65
2020-11-13 11:00:00 20.7 10 Nordeste 19 Nordeste 0 1020.9 -- 75
2020-11-13 10:00:00 19.6 10 Nordeste 15 Norte 0 1021 -- 76
2020-11-13 09:00:00 18.6 6 Norte 13 Norte 0 1020.7 -- 78
2020-11-13 08:00:00 17.6 4 Norte 12 Norte 0 1020.2 -- 81
2020-11-13 07:00:00 17.5 6 Norte 15 Noroeste 0 1019.8 -- 80
2020-11-13 06:00:00 17.5 6 Norte 14 Norte 0 1020 -- 80
2020-11-13 05:00:00 17.6 5 Norte 14 Noroeste 0 1020 -- 79
2020-11-13 04:00:00 17.6 8 Noroeste 14 Norte 0 1020.3 -- 78
2020-11-13 03:00:00 17.5 5 Norte 13 Norte 0 1020.7 -- 80
2020-11-13 02:00:00 17.2 6 Noroeste 14 Noroeste 0 1021.2 -- 80
2020-11-13 01:00:00 17.2 7 Noroeste 15 Noroeste 0 1021.5 -- 79
2020-11-13 00:00:00 16.9 5 Norte 12 Norte 0 1021.8 -- 81
2020-11-12 23:00:00 16.9 6 Norte 13 Norte 0 1022 -- 81
2020-11-12 22:00:00 17 4 Norte 9 Noroeste 0 1022 -- 81
2020-11-12 21:00:00 17.4 5 Noroeste 11 Nordeste 0 1021.9 -- 79
2020-11-12 20:00:00 18.5 6 Nordeste 13 Este 0 1022 -- 78
2020-11-12 19:00:00 19.2 4 Sudeste 13 Sur 0 1021.8 -- 76
2020-11-12 18:00:00 19.3 4 Sudoeste 10 Sur 0 1021.5 -- 77
2020-11-12 17:00:00 19.7 5 Sudoeste 14 Sudoeste 0 1021.5 -- 76
2020-11-12 16:00:00 20.6 8 Sur 13 Sudoeste 0 1021.4 -- 64
2020-11-12 15:00:00 22 5 Sudoeste 11 Sudoeste 0 1021.2 -- 54
2020-11-12 14:00:00 22.9 3 Sudeste 6 Sudeste 0 1021.6 -- 51
2020-11-12 13:00:00 21.8 4 Sudeste 7 Sudeste 0 1022.5 -- 59
2020-11-12 12:00:00 21.2 4 Sudeste 9 Este 0 1023.3 -- 66
2020-11-12 11:00:00 19.6 3 Este 8 Este 0 1023.5 -- 69
2020-11-12 10:00:00 18.1 4 Nordeste 8 Este 0 1023.4 -- 72
2020-11-12 09:00:00 15.7 4 Nordeste 7 Nordeste 0 1023.1 -- 87
2020-11-12 08:00:00 14.1 3 Nordeste 7 Nordeste 0 1022.9 -- 92
2020-11-12 07:00:00 14.4 4 Nordeste 6 Nordeste 0 1022.6 -- 92
2020-11-12 06:00:00 14.2 4 Nordeste 6 Nordeste 0 1022.3 -- 92
2020-11-12 05:00:00 14.5 2 Norte 6 Nordeste 0 1022.3 -- 90
2020-11-12 04:00:00 15.1 2 Nordeste 11 Noroeste 0 1022.4 -- 89
2020-11-12 03:00:00 15.7 5 Noroeste 11 Noroeste 0 1023 -- 85
2020-11-12 02:00:00 15.4 5 Noroeste 12 Noroeste 0 1023.3 -- 85
2020-11-12 01:00:00 14.3 3 Nordeste 6 Nordeste 0 1023.7 -- 89
2020-11-12 00:00:00 15.1 0 Calma 9 Norte 0 1023.9 -- 88
2020-11-11 23:00:00 15.9 6 Noroeste 11 Norte 0 1024.3 -- 80
2020-11-11 22:00:00 15 4 Norte 8 Norte 0 1024 -- 86
2020-11-11 21:00:00 15.5 3 Norte 6 Nordeste 0 1023.9 -- 85
2020-11-11 20:00:00 16.7 0 Calma 8 Noroeste 0 1023.7 -- 79
2020-11-11 19:00:00 17.4 4 Noroeste 8 Sudoeste 0 1023.5 -- 75
2020-11-11 18:00:00 18.7 5 Sur 14 Sur 0 1022.9 -- 72
2020-11-11 17:00:00 19.2 8 Sudoeste 18 Sur 0 1022.9 -- 68
2020-11-11 16:00:00 19.8 9 Sur 15 Sur 0 1023 -- 64
2020-11-11 15:00:00 20.8 7 Sur 16 Sur 0 1023.1 -- 62
2020-11-11 14:00:00 21.3 7 Sur 13 Sudoeste 0 1023.5 -- 59
2020-11-11 13:00:00 22.1 4 Sudeste 10 Este 0 1024 -- 56
2020-11-11 12:00:00 21.1 6 Este 12 Este 0 1024.7 -- 59
2020-11-11 11:00:00 19.5 4 Este 13 Este 0 1025.2 -- 67
2020-11-11 10:00:00 18.7 8 Norte 13 Norte 0 1025.4 -- 67
2020-11-11 09:00:00 16.8 4 Nordeste 9 Nordeste 0 1025.4 -- 77
2020-11-11 08:00:00 14 2 Nordeste 7 Nordeste 0 1025.2 -- 86
2020-11-11 07:00:00 14.1 3 Norte 6 Noroeste 0 1025 -- 83
2020-11-11 06:00:00 13.6 2 Norte 11 Nordeste 0 1025.1 -- 87
2020-11-11 05:00:00 12.9 5 Norte 8 Nordeste 0 1025.3 -- 88
2020-11-11 04:00:00 13.3 4 Nordeste 9 Norte 0 1025.3 -- 87
2020-11-11 03:00:00 13.6 4 Norte 8 Nordeste 0 1025.7 -- 86
2020-11-11 02:00:00 14.8 0 Calma 8 Norte 0 1025.6 -- 82
2020-11-11 01:00:00 15.3 3 Norte 9 Noroeste 0 1025.5 -- 78
2020-11-11 00:00:00 14.8 4 Norte 11 Norte 0 1025.6 -- 85
2020-11-10 23:00:00 14.9 7 Norte 13 Norte 0 1025.8 -- 85
2020-11-10 22:00:00 15.5 4 Norte 8 Norte 0 1025.6 -- 84
2020-11-10 21:00:00 16.2 0 Calma 5 Norte 0 1025.3 -- 85
2020-11-10 20:00:00 17.3 0 Calma 17 Nordeste 0 1025.2 -- 79
2020-11-10 19:00:00 18.5 9 Nordeste 18 Este 0 1025.2 -- 78
2020-11-10 18:00:00 19.5 7 Este 21 Norte 0 1024.5 -- 73
2020-11-10 17:00:00 20.4 11 Noroeste 21 Noroeste 0 1023.6 -- 59
2020-11-10 16:00:00 20.8 11 Norte 21 Norte 0 1023.3 -- 58
2020-11-10 15:00:00 21.9 5 Sudeste 13 Sur 0 1023.1 -- 67
2020-11-10 14:00:00 21.6 6 Sur 14 Sur 0 1023.2 -- 70
2020-11-10 13:00:00 21.2 6 Sur 13 Sudoeste 0 1023.8 -- 69
2020-11-10 12:00:00 20.5 6 Sur 12 Sur 0 1024.3 -- 69
2020-11-10 11:00:00 19.4 4 Sur 7 Sudeste 0 1024.6 -- 73
2020-11-10 10:00:00 18.7 3 Sudeste 5 Sudeste 0 1024.4 -- 77
2020-11-10 09:00:00 16.8 0 Calma 4 Noroeste 0 1024 -- 83
2020-11-10 08:00:00 14.4 2 Norte 6 Norte 0 1023.3 -- 92
2020-11-10 07:00:00 14.2 2 Norte 8 Noroeste 0 1022.8 -- 90
2020-11-10 06:00:00 14 4 Norte 8 Norte 0 1022.5 -- 89
2020-11-10 05:00:00 14.1 0 Calma -- -- 0 1021.8 -- 83
2020-11-10 04:00:00 13.7 0 Calma 6 Nordeste 0 1021.9 -- 80
2020-11-10 03:00:00 13.8 3 Norte 6 Nordeste 0 1022 -- 84
2020-11-10 02:00:00 14.3 0 Calma 6 Norte 0 1022.1 -- 85
2020-11-10 01:00:00 14.9 0 Calma 6 Noroeste 0 1022 -- 89
2020-11-10 00:00:00 15.1 0 Calma 4 Nordeste 0 1022.2 -- 91
2020-11-09 23:00:00 15.9 0 Calma 6 Nordeste 0 1022.1 -- 89
2020-11-09 22:00:00 16.2 5 Norte 7 Norte 0 1021.9 -- 88
2020-11-09 21:00:00 17.4 3 Norte 8 Noroeste 0 1021.5 -- 84
2020-11-09 20:00:00 17.9 4 Norte 8 Norte 0 1021.5 -- 75
2020-11-09 19:00:00 18.7 4 Norte 12 Norte 0 1021.2 -- 70
2020-11-09 18:00:00 19.9 8 Nordeste 12 Norte 0 1020.6 -- 68
2020-11-09 17:00:00 21.2 5 Norte 15 Norte 0 1020.2 -- 62
2020-11-09 16:00:00 22 3 Sur 15 Sudoeste 0 1020 -- 57
2020-11-09 15:00:00 22.3 6 Sur 14 Sudoeste 0 1019.8 -- 61
2020-11-09 14:00:00 22.3 8 Sur 14 Sur 0 1020.2 -- 63
2020-11-09 13:00:00 22 8 Sur 13 Sur 0 1020.6 -- 71
2020-11-09 12:00:00 21.1 5 Sur 10 Sur 0 1021.2 -- 76
2020-11-09 11:00:00 19.5 4 Sudeste 7 Sudeste 0 1021.4 -- 78
2020-11-09 10:00:00 18.7 0 Calma 4 Sudeste 0 1021.4 -- 81
2020-11-09 09:00:00 16.3 3 Nordeste 6 Nordeste 0 1021.4 -- 90
2020-11-09 08:00:00 15.4 0 Calma 7 Nordeste 0 1021 -- 95
2020-11-09 07:00:00 15.3 4 Norte 7 Norte 0 1020.6 -- 95
2020-11-09 06:00:00 15.4 5 Nordeste 10 Nordeste 0 1020.4 -- 90
2020-11-09 05:00:00 15 3 Nordeste 10 Norte 0 1020.3 -- 94
2020-11-09 04:00:00 15.2 7 Nordeste 12 Nordeste 0 1020.3 -- 89
2020-11-09 03:00:00 15.8 3 Norte 6 Norte 0 1021 -- 94
2020-11-09 02:00:00 16 4 Norte 8 Norte 0 1021.2 -- 93
2020-11-09 01:00:00 16.8 4 Norte 11 Norte 0 1021.3 -- 91
2020-11-09 00:00:00 16.7 5 Norte 8 Nordeste 0 1021.4 -- 92
2020-11-08 23:00:00 16.9 5 Norte 8 Norte 0 1021.4 -- 92
2020-11-08 22:00:00 17.6 4 Norte 8 Norte 0 1021.5 -- 90
2020-11-08 21:00:00 17.7 4 Noroeste 9 Norte 0 1021.8 -- 91
2020-11-08 20:00:00 17.9 3 Norte 7 Norte 0 1021.8 -- 92
2020-11-08 19:00:00 18.3 0 Calma 4 Norte 0 1021.7 -- 91
2020-11-08 18:00:00 19.2 0 Calma 9 Sur 0 1021.2 -- 87
2020-11-08 17:00:00 19.9 6 Sur 17 Sur 0 1021.3 -- 84
2020-11-08 16:00:00 20.6 9 Sur 19 Sur 0 1021.3 -- 81
2020-11-08 15:00:00 20.9 12 Sur 19 Sudoeste 0 1021.5 -- 80
2020-11-08 14:00:00 21.4 7 Sur 15 Sur 0 1021.8 -- 78
2020-11-08 13:00:00 21.3 8 Sur 14 Sur 0 1022.6 -- 77
2020-11-08 12:00:00 21.4 5 Sudeste 9 Sudeste 0 1023.3 -- 77
2020-11-08 11:00:00 20.1 4 Sudeste 7 Este 0 1023.6 -- 73
2020-11-08 10:00:00 19 4 Nordeste 8 Nordeste 0 1023.4 -- 72
2020-11-08 09:00:00 15.9 4 Nordeste 7 Nordeste 0 1023.4 -- 93
2020-11-08 08:00:00 14.6 0 Calma -- -- 0 1023.3 -- 96
2020-11-08 07:00:00 14.3 0 Calma 6 Nordeste 0 1022.8 -- 96
2020-11-08 06:00:00 14.3 0 Calma 5 Nordeste 0 1022.7 -- 96
2020-11-08 05:00:00 14.6 0 Calma 5 Norte 0 1022.7 -- 95
2020-11-08 04:00:00 15 4 Norte 6 Nordeste 0 1022.7 -- 94
2020-11-08 03:00:00 15.2 0 Calma 8 Norte 0 1023.1 -- 94
2020-11-08 02:00:00 15.8 3 Norte 7 Norte 0 1023.2 -- 93
2020-11-08 01:00:00 15.9 0 Calma 5 Norte 0 1023.6 -- 94
2020-11-08 00:00:00 16.4 0 Calma -- -- 0 1023.3 -- 95
2020-11-07 23:00:00 17.1 0 Calma -- -- 0 1023.1 -- 92
2020-11-07 22:00:00 17.7 0 Calma 5 Noroeste 0 1023.1 -- 91
2020-11-07 21:00:00 18 0 Calma 5 Noroeste 0 1022.7 -- 90
2020-11-07 20:00:00 19.2 0 Calma 10 Sudoeste 0 1022.4 -- 90
2020-11-07 19:00:00 20.3 5 Sur 17 Sur 0 1022.1 -- 84
2020-11-07 18:00:00 20.5 6 Sur 15 Sur 0 1021.6 -- 84
2020-11-07 17:00:00 21.2 4 Sur 11 Sur 0 1021.2 -- 75
2020-11-07 16:00:00 21.9 2 Sudoeste 6 Sudoeste 0 1021.1 -- 64
2020-11-07 15:00:00 22.7 2 Este 7 Sur 0 1020.5 -- 64
2020-11-07 14:00:00 20.7 3 Nordeste 10 Nordeste 0 1020.7 -- 73
2020-11-07 13:00:00 19.3 3 Norte 12 Norte 0 1021.4 -- 82
2020-11-07 12:00:00 18.1 3 Sudoeste 55 Sur 6.8 1022.1 -- 84
2020-11-07 11:00:00 18.2 6 Noroeste 11 Noroeste 1.6 1022.4 -- 89
2020-11-07 10:00:00 18.9 4 Sudoeste 44 Sudoeste 1.2 1021.8 -- 79
2020-11-07 09:00:00 21.6 18 Sudoeste 49 Sudoeste 0 1021 -- 71
2020-11-07 08:00:00 20.1 0 Calma 10 Norte 0 1019.9 -- 88
2020-11-07 07:00:00 20.6 5 Nordeste 17 Noroeste 0.2 1019.7 -- 84
2020-11-07 06:00:00 20.4 6 Noroeste 17 Norte 0.1 1020.2 -- 84
2020-11-07 05:00:00 20.4 7 Nordeste 14 Nordeste 0 1019.4 -- 84
2020-11-07 04:00:00 20.3 5 Nordeste 14 Norte 0 1019 -- 83
2020-11-07 03:00:00 20.1 6 Norte 17 Norte 0 1018.9 -- 85
2020-11-07 02:00:00 20.2 9 Nordeste 17 Nordeste 0 1019.3 -- 85
2020-11-07 01:00:00 20.2 10 Nordeste 21 Norte 0 1019.8 -- 85
2020-11-07 00:00:00 20.4 11 Nordeste 21 Nordeste 0 1020.3 -- 84
2020-11-06 23:00:00 20.4 9 Nordeste 24 Nordeste 0 1020.6 -- 84
2020-11-06 22:00:00 20.6 12 Nordeste 26 Nordeste 0 1020.7 -- 83
2020-11-06 21:00:00 20.7 12 Nordeste 27 Nordeste 0 1020.5 -- 82
2020-11-06 20:00:00 20.9 12 Nordeste 24 Nordeste 0 1020.9 -- 81
2020-11-06 19:00:00 21.1 11 Nordeste 24 Nordeste 0 1021 -- 80
2020-11-06 18:00:00 21.3 17 Nordeste 27 Nordeste 0 1020.7 -- 79
2020-11-06 17:00:00 22.1 12 Este 24 Nordeste 0 1020.9 -- 75
2020-11-06 16:00:00 23.2 10 Este 27 Este 0 1020.8 -- 70
2020-11-06 15:00:00 23.6 16 Este 26 Este 0 1021 -- 69
2020-11-06 14:00:00 24.7 9 Este 22 Nordeste 0 1021.6 -- 65
2020-11-06 13:00:00 24.6 10 Este 25 Nordeste 0 1022.4 -- 67
2020-11-06 12:00:00 23.2 11 Este 29 Nordeste 0 1023.1 -- 72
2020-11-06 11:00:00 22.1 13 Nordeste 28 Nordeste 0 1023.4 0.7 77
2020-11-06 10:00:00 21.3 12 Nordeste 23 Este 0 1023.3 -- 79
2020-11-06 09:00:00 20.7 11 Nordeste 21 Este 0 1023.1 -- 81
2020-11-06 08:00:00 20.4 9 Nordeste 22 Nordeste 0 1022.7 -- 82
2020-11-06 07:00:00 20.2 12 Norte 22 Nordeste 0 1022.4 -- 82
2020-11-06 06:00:00 20.3 10 Nordeste 24 Nordeste 0 1022.5 -- 81
2020-11-06 05:00:00 20.3 10 Nordeste 19 Nordeste 0 1022.4 -- 81
2020-11-06 04:00:00 20.3 10 Nordeste 24 Norte 0 1022 -- 81
2020-11-06 03:00:00 20.2 14 Nordeste 26 Nordeste 0 1022.3 -- 82
2020-11-06 02:00:00 20.1 12 Nordeste 24 Este 0 1022.4 -- 82
2020-11-06 01:00:00 20.1 10 Nordeste 22 Este 0 1022.8 -- 82
2020-11-06 00:00:00 20.1 11 Nordeste 23 Nordeste 0 1022.8 -- 82
2020-11-05 23:00:00 20.1 11 Nordeste 25 Nordeste 0 1022.9 -- 82
2020-11-05 22:00:00 20 13 Nordeste 25 Nordeste 0 1023 -- 81
2020-11-05 21:00:00 20 13 Nordeste 22 Nordeste 0 1023.2 -- 83
2020-11-05 20:00:00 19.9 11 Nordeste 28 Nordeste 0 1022.7 -- 82
2020-11-05 19:00:00 20.1 12 Nordeste 23 Nordeste 0 1023 -- 80
2020-11-05 18:00:00 20.4 14 Nordeste 26 Este 0 1022.9 -- 80
2020-11-05 17:00:00 20.8 12 Este 25 Este 0 1022.8 -- 76
2020-11-05 16:00:00 21.1 12 Nordeste 29 Nordeste 0 1022.6 -- 75
2020-11-05 15:00:00 21.4 13 Este 28 Este 0 1022.4 -- 71
2020-11-05 14:00:00 21.4 13 Este 27 Este 0 1022.8 -- 69
2020-11-05 13:00:00 21.3 14 Este 29 Este 0 1023.3 -- 65
2020-11-05 12:00:00 21.5 13 Este 28 Nordeste 0 1023.7 -- 65
2020-11-05 11:00:00 20.6 18 Nordeste 33 Nordeste 0 1023.9 -- 74
2020-11-05 10:00:00 19.7 16 Nordeste 31 Nordeste 0 1023.8 -- 76
2020-11-05 09:00:00 19.3 16 Nordeste 26 Nordeste 0 1023.5 -- 77
2020-11-05 08:00:00 18.5 15 Nordeste 29 Nordeste 0 1023.4 -- 80
2020-11-05 07:00:00 18.3 13 Nordeste 28 Nordeste 0 1022.8 -- 82
2020-11-05 06:00:00 18.2 15 Nordeste 28 Norte 0 1022.4 -- 81
2020-11-05 05:00:00 18.1 14 Nordeste 27 Este 0 1022.5 -- 80
2020-11-05 04:00:00 17.8 14 Nordeste 30 Este 0 1022.1 -- 78
2020-11-05 03:00:00 17.8 13 Nordeste 28 Nordeste 0 1022.2 -- 78
2020-11-05 02:00:00 17.6 15 Nordeste 29 Nordeste 0 1022.3 -- 76
2020-11-05 01:00:00 17.7 15 Nordeste 33 Nordeste 0 1022.6 -- 76
2020-11-05 00:00:00 17.7 14 Nordeste 36 Nordeste 0 1022.9 -- 75
2020-11-04 23:00:00 17.6 17 Nordeste 38 Nordeste 0 1022.2 -- 74
2020-11-04 22:00:00 17.7 18 Nordeste 34 Nordeste 0 1022 -- 73
2020-11-04 21:00:00 17.6 17 Nordeste 40 Nordeste 0 1021.7 -- 73
2020-11-04 20:00:00 17.7 21 Nordeste 37 Nordeste 0 1021.1 -- 72
2020-11-04 19:00:00 17.8 27 Nordeste 49 Nordeste 0 1020.2 -- 72
2020-11-04 18:00:00 17.9 20 Nordeste 36 Nordeste 0 1019.2 -- 75
2020-11-04 17:00:00 18.4 19 Nordeste 38 Este 0 1019.2 -- 74
2020-11-04 16:00:00 18.6 22 Nordeste 39 Este 0 1019.2 -- 74
2020-11-04 15:00:00 18.9 16 Nordeste 34 Nordeste 0 1018.8 -- 71
2020-11-04 14:00:00 19.4 17 Nordeste 34 Nordeste 0 1019.1 -- 70
2020-11-04 13:00:00 20 17 Nordeste 39 Nordeste 0 1019.5 -- 66
2020-11-04 12:00:00 20.9 18 Nordeste 38 Nordeste 0 1019.9 -- 64
2020-11-04 11:00:00 19.9 16 Nordeste 37 Nordeste 0 1020.2 -0.1 68
2020-11-04 10:00:00 18.2 13 Nordeste 26 Este 0 1020.8 -- 76
2020-11-04 09:00:00 17.4 13 Norte 23 Norte 0 1020.7 -- 81
2020-11-04 08:00:00 17 12 Norte 21 Norte 0 1020.3 -- 81
2020-11-04 07:00:00 16.8 9 Nordeste 21 Norte 0 1020.1 -- 82
2020-11-04 06:00:00 16.5 8 Norte 18 Nordeste 0 1020.5 -- 81
2020-11-04 05:00:00 16.8 10 Norte 23 Nordeste 0 1020.9 -- 79
2020-11-04 04:00:00 16.9 11 Nordeste 21 Nordeste 0 1021.2 -- 78
2020-11-04 03:00:00 17.2 10 Nordeste 20 Nordeste 0 1022.2 -- 74
2020-11-04 02:00:00 17.7 12 Nordeste 23 Nordeste 0 1022.5 -- 73
2020-11-04 01:00:00 18 11 Nordeste 19 Nordeste 0 1023.1 -- 78
2020-11-04 00:00:00 18.1 9 Nordeste 18 Nordeste 0 1023.5 -- 77
2020-11-03 23:00:00 18.2 10 Nordeste 25 Este 0 1023.8 -- 77
2020-11-03 22:00:00 18.6 15 Nordeste 29 Este 0 1024.1 -- 79
2020-11-03 21:00:00 19.5 12 Nordeste 21 Nordeste 0 1024.1 -- 70
2020-11-03 20:00:00 19.7 10 Nordeste 26 Nordeste 0 1023.9 -- 71
2020-11-03 19:00:00 19.9 8 Nordeste 22 Nordeste 0 1023.6 -- 67
2020-11-03 18:00:00 20 4 Este 11 Este 0 1023.4 -- 78
2020-11-03 17:00:00 20.4 3 Sur 14 Sudoeste 0 1022.8 -- 74
2020-11-03 16:00:00 20.8 8 Sur 19 Sudoeste 0 1022.7 -- 73
2020-11-03 15:00:00 21.7 9 Sur 18 Sudoeste 0 1022.3 -- 68
2020-11-03 14:00:00 22.6 8 Sudoeste 19 Sudoeste 0 1022.6 -- 63
2020-11-03 13:00:00 23.5 5 Sudeste 10 Sudeste 0 1023 -- 57
2020-11-03 12:00:00 21.9 5 Sudeste 9 Este 0 1023.5 -- 61
2020-11-03 11:00:00 20.1 4 Nordeste 12 Nordeste 0 1023.9 -- 69
2020-11-03 10:00:00 19.3 5 Nordeste 12 Nordeste 0 1024 -- 70
2020-11-03 09:00:00 17.2 4 Norte 9 Nordeste 0 1023.7 -- 82
2020-11-03 08:00:00 16.5 0 Calma 6 Noroeste 0 1023.1 -- 85
2020-11-03 07:00:00 16.8 4 Noroeste 10 Noroeste 0 1022.7 -- 83
2020-11-03 06:00:00 16.2 5 Norte 13 Norte 0 1022.8 -- 84
2020-11-03 05:00:00 15.7 6 Norte 10 Norte 0 1022.7 -- 87
2020-11-03 04:00:00 15.1 6 Norte 10 Nordeste 0 1022.4 -- 89
2020-11-03 03:00:00 16 3 Norte 6 Norte 0 1022.4 -- 89
2020-11-03 02:00:00 16.6 4 Norte 6 Norte 0 1022.2 -- 87
2020-11-03 01:00:00 17.4 4 Norte 6 Norte 0 1022.6 -- 85
2020-11-03 00:00:00 18.1 2 Norte 5 Norte 0 1022.8 -- 84
2020-11-02 23:00:00 18 0 Calma 4 Norte 0 1023 -- 85
2020-11-02 22:00:00 17.6 0 Calma 5 Norte 0 1023.1 -- 86
2020-11-02 21:00:00 17.1 2 Norte 8 Nordeste 0 1022.6 -- 87
2020-11-02 20:00:00 16.9 3 Nordeste 5 Norte 0 1022.6 -- 88
2020-11-02 19:00:00 18.4 0 Calma 8 Sur 0 1022.2 -- 83
2020-11-02 18:00:00 19.2 4 Sur 11 Sur 0 1021.8 -- 79
2020-11-02 17:00:00 19.8 7 Sur 12 Sur 0 1021.7 -- 76
2020-11-02 16:00:00 20.4 6 Sur 15 Sur 0 1021.7 -- 72
2020-11-02 15:00:00 21.4 10 Sur 21 Sur 0 1021.8 -- 68
2020-11-02 14:00:00 21.4 10 Sur 17 Sur 0 1022.1 -- 68
2020-11-02 13:00:00 21.6 9 Sur 17 Sudoeste 0 1022.7 -- 69
2020-11-02 12:00:00 21 7 Sur 14 Sur 0 1023.1 -- 71
2020-11-02 11:00:00 20.4 4 Sur 10 Sudeste 0 1023.4 -- 73
2020-11-02 10:00:00 19.1 0 Calma -- -- 0 1023.4 -- 80
2020-11-02 09:00:00 17.2 0 Calma -- -- 0 1023 -- 85
2020-11-02 08:00:00 14.6 0 Calma -- -- 0 1022.5 -- 95
2020-11-02 07:00:00 14.7 0 Calma -- -- 0 1022.4 -- 95
2020-11-02 06:00:00 15.3 0 Calma -- -- 0 1022.2 -- 94
2020-11-02 05:00:00 15.7 0 Calma -- -- 0 1022.1 -- 95
2020-11-02 04:00:00 15.5 0 Calma -- -- 0 1022.1 -- 95
2020-11-02 03:00:00 15.2 0 Calma -- -- 0 1022.3 -- 94
2020-11-02 02:00:00 15.8 0 Calma 5 Norte 0 1022.5 -- 93
2020-11-02 01:00:00 16.4 0 Calma 5 Nordeste 0 1023.1 -- 92
2020-11-02 00:00:00 16.5 0 Calma -- -- 0 1023.4 -- 93
2020-11-01 23:00:00 16.1 0 Calma -- -- 0 1023.6 -- 93
2020-11-01 22:00:00 16.5 0 Calma 3 Norte 0 1023.5 -- 91
2020-11-01 21:00:00 16.9 2 Norte 5 Nordeste 0 1023.3 -- 89
2020-11-01 20:00:00 18.2 0 Calma 9 Oeste 0 1023 -- 85
2020-11-01 19:00:00 19.1 5 Sudoeste 14 Oeste 0 1022.8 -- 81
2020-11-01 18:00:00 19.5 6 Sur 17 Sur 0 1022.4 -- 79
2020-11-01 17:00:00 20 10 Sur 20 Sur 0 1022.3 -- 77
2020-11-01 16:00:00 20.5 10 Sur 25 Sur 0 1022.7 -- 75
2020-11-01 15:00:00 21.4 13 Sur 26 Sudoeste 0 1022.9 -- 70
2020-11-01 14:00:00 21.7 14 Sur 26 Sudoeste 0 1023.1 -- 70
2020-11-01 13:00:00 21.6 13 Sur 25 Sur 0 1023.7 -- 70
2020-11-01 12:00:00 20.9 9 Sur 15 Sur 0 1024.4 -- 72
2020-11-01 11:00:00 20.1 6 Sudeste 11 Sur 0 1024.5 -- 78
2020-11-01 10:00:00 18.7 4 Nordeste 9 Nordeste 0 1024.1 -- 77
2020-11-01 09:00:00 17.1 6 Norte 9 Norte 0 1023.7 -- 83
2020-11-01 08:00:00 14.5 3 Norte 8 Nordeste 0 1023.9 -- 92
2020-11-01 07:00:00 14.6 3 Nordeste 6 Nordeste 0 1023.4 -- 93
2020-11-01 06:00:00 14.7 0 Calma 5 Sur 0 1023.4 -- 94
2020-11-01 05:00:00 15.3 0 Calma 5 Sur 0 1023.5 -- 93
2020-11-01 04:00:00 14.9 0 Calma 5 Norte 0 1023.2 -- 94
2020-11-01 03:00:00 14.9 4 Norte 7 Noroeste 0 1023.2 -- 93
2020-11-01 02:00:00 14.7 4 Norte 8 Norte 0 1023.7 -- 92
2020-11-01 01:00:00 15.5 0 Calma 6 Norte 0 1024.1 -- 91
2020-11-01 00:00:00 16 0 Calma 7 Noroeste 0 1024.2 -- 90
2020-10-31 23:00:00 16.2 0 Calma -- -- 0 1024.2 -- 89
2020-10-31 22:00:00 16.9 0 Calma 0 Calma 0 1024.3 -- 87
2020-10-31 21:00:00 17 0 Calma 5 Noroeste 0 1023.7 -- 87
2020-10-31 20:00:00 17.8 0 Calma 7 Sudoeste 0 1023.5 -- 83
2020-10-31 19:00:00 18.8 0 Calma 14 Sur 0 1023.4 -- 79
2020-10-31 18:00:00 19.8 8 Sur 15 Sur 0 1022.9 -- 77
2020-10-31 17:00:00 20.3 9 Sur 17 Sur 0 1022.9 -- 75
2020-10-31 16:00:00 20.8 8 Sur 18 Sudoeste 0 1023 -- 73
2020-10-31 15:00:00 21.8 9 Sur 19 Sur 0 1023 -- 69
2020-10-31 14:00:00 22 10 Sur 20 Sudoeste 0 1023.6 -- 72
2020-10-31 13:00:00 21.8 8 Sur 15 Sudoeste 0 1024.2 -- 74
2020-10-31 12:00:00 21.5 6 Sur 10 Sur 0 1024.7 -- 74
2020-10-31 11:00:00 20.1 4 Sudeste 6 Este 0 1025 -- 76
2020-10-31 10:00:00 19.3 0 Calma -- -- 0 1025.3 -- 72
2020-10-31 09:00:00 16.2 0 Calma -- -- 0 1025.2 -- 84
2020-10-31 08:00:00 13.9 0 Calma 3 Norte 0 1024.7 -- 95
2020-10-31 07:00:00 13.7 0 Calma -- -- 0 1024.3 -- 96
2020-10-31 06:00:00 14.1 0 Calma -- -- 0 1024.2 -- 96
2020-10-31 05:00:00 14 0 Calma 0 Calma 0 1024.2 -- 96
2020-10-31 04:00:00 14.2 0 Calma 3 Norte 0 1024.2 -- 97
2020-10-31 03:00:00 14.7 2 Norte 4 Norte 0 1024.2 -- 96
2020-10-31 02:00:00 15.1 0 Calma 2 Norte 0 1024.7 -- 96
2020-10-31 01:00:00 15.3 0 Calma -- -- 0 1024.8 -- 95
2020-10-31 00:00:00 15.8 0 Calma 5 Norte 0 1025 -- 94
2020-10-30 23:00:00 16 0 Calma -- -- 0 1025.3 -- 93
2020-10-30 22:00:00 16.2 0 Calma 4 Norte 0 1025.3 -- 89
2020-10-30 21:00:00 17.2 0 Calma 2 Noroeste 0 1025 -- 82
2020-10-30 20:00:00 18.3 0 Calma 9 Oeste 0 1024.8 -- 83
2020-10-30 19:00:00 19.4 2 Oeste 17 Sudoeste 0 1024.7 -- 85
2020-10-30 18:00:00 20.2 9 Sudoeste 21 Sudoeste 0 1024.2 -- 79
2020-10-30 17:00:00 20.8 9 Sudoeste 22 Sur 0 1024.1 -- 79
2020-10-30 16:00:00 21.7 11 Sur 22 Sur 0 1024.3 -- 69
2020-10-30 15:00:00 22.2 11 Sur 23 Sur 0 1024.5 -- 69
2020-10-30 14:00:00 22.5 12 Sur 28 Sur 0 1024.8 -- 70
2020-10-30 13:00:00 22 13 Sur 24 Sur 0 1025.2 -- 77
2020-10-30 12:00:00 21.7 10 Sur 18 Sur 0 1025.6 -- 78
2020-10-30 11:00:00 20.5 5 Sur 12 Sur 0 1025.9 -- 79
2020-10-30 10:00:00 19.3 2 Sudeste 6 Sudeste 0 1026 -- 73
2020-10-30 09:00:00 16.8 0 Calma -- -- 0 1026 -- 85
2020-10-30 08:00:00 14.6 0 Calma -- -- 0 1025.5 -- 96
2020-10-30 07:00:00 13.8 0 Calma -- -- 0 1025.2 -- 96
2020-10-30 06:00:00 14 0 Calma -- -- 0 1025.3 -- 96
2020-10-30 05:00:00 14.4 0 Calma -- -- 0 1025.4 -- 96
2020-10-30 04:00:00 14.6 0 Calma -- -- 0 1025.2 -- 95
2020-10-30 03:00:00 15 0 Calma -- -- 0 1025.3 -- 95
2020-10-30 02:00:00 15.2 0 Calma 0 Calma 0 1025.6 -- 94
2020-10-30 01:00:00 15.6 0 Calma 3 Sudeste 0 1026 -- 94
2020-10-30 00:00:00 16 0 Calma 5 Norte 0 1026.1 -- 92
2020-10-29 23:00:00 16.3 3 Nordeste 5 Norte 0 1026.2 -- 87
2020-10-29 22:00:00 16.4 4 Nordeste 7 Norte 0 1026.2 -- 82
2020-10-29 21:00:00 17.1 4 Norte 6 Norte 0 1025.8 -- 79
2020-10-29 20:00:00 18.6 3 Sudoeste 7 Sudoeste 0 1025.6 -- 79
2020-10-29 19:00:00 19.5 3 Sudoeste 12 Sudoeste 0 1025.6 -- 78
2020-10-29 18:00:00 20.3 4 Sudoeste 17 Sudoeste 0 1025.1 -- 75
2020-10-29 17:00:00 20.9 9 Sudoeste 26 Sur 0 1024.7 -- 69
2020-10-29 16:00:00 21.1 9 Sudoeste 22 Sur 0 1024.6 -- 71
2020-10-29 15:00:00 22.2 6 Sudoeste 16 Sudoeste 0 1024.8 -- 65
2020-10-29 14:00:00 21.9 8 Sudoeste 15 Sudoeste 0 1025.4 -- 64
2020-10-29 13:00:00 22.1 5 Sur 13 Sudoeste 0 1025.7 -- 63
2020-10-29 12:00:00 21.9 5 Sudoeste 11 Sur 0 1026.1 -- 61
2020-10-29 11:00:00 20.3 2 Nordeste 7 Este 0 1026.6 -- 63
2020-10-29 10:00:00 20.6 2 Este 7 Nordeste 0 1026.5 -- 63
2020-10-29 09:00:00 18.3 5 Nordeste 8 Nordeste 0 1026 -- 68
2020-10-29 08:00:00 14.7 2 Nordeste 5 Nordeste 0 1025.2 -- 83
2020-10-29 07:00:00 14.6 2 Nordeste 6 Norte 0 1024.5 -- 84
2020-10-29 06:00:00 14.3 2 Norte 6 Norte 0 1024.2 -- 85
2020-10-29 05:00:00 14.4 4 Norte 8 Noroeste 0 1023.8 -- 80
2020-10-29 04:00:00 14.4 0 Calma 7 Este 0 1023.6 -- 78
2020-10-29 03:00:00 14.5 0 Calma 9 Norte 0 1023.4 -- 76
2020-10-29 02:00:00 14.9 5 Norte 8 Nordeste 0 1022.9 -- 77
2020-10-29 01:00:00 15.1 0 Calma 7 Norte 0 1022.5 -- 77
2020-10-29 00:00:00 15.6 0 Calma 8 Norte 0 1022.6 -- 82
2020-10-28 23:00:00 16.2 0 Calma 6 Nordeste 0 1022.7 -- 82
2020-10-28 22:00:00 17.3 0 Calma 13 Oeste 0 1022.7 -- 80
2020-10-28 21:00:00 18.6 3 Oeste 11 Oeste 0 1022.2 -- 78
2020-10-28 20:00:00 18.8 4 Sudoeste 7 Sudoeste 0 1021.7 -- 79
2020-10-28 19:00:00 19.1 0 Calma 8 Oeste 0 1021.2 -- 76
2020-10-28 18:00:00 19.8 4 Sudoeste 19 Oeste 0 1020.4 -- 70
2020-10-28 17:00:00 20.6 6 Sudoeste 22 Sudoeste 0 1020.1 -- 65
2020-10-28 16:00:00 21.1 10 Sudoeste 22 Sudoeste 0 1020.1 -- 58
2020-10-28 15:00:00 21.6 13 Sur 22 Sur 0 1019.8 -- 57
2020-10-28 14:00:00 22 10 Sur 19 Sur 0 1019.9 -- 55
2020-10-28 13:00:00 21.6 9 Sur 16 Sur 0 1020.4 -- 60
2020-10-28 12:00:00 21.5 7 Sur 13 Sur 0 1020.5 -- 61
2020-10-28 11:00:00 20.5 5 Sudeste 10 Sudeste 0 1020.8 -- 61
2020-10-28 10:00:00 19.4 2 Este 7 Nordeste 0 1020.6 -- 54
2020-10-28 09:00:00 16.3 0 Calma -- -- 0 1019.9 -- 76
2020-10-28 08:00:00 14 0 Calma -- -- 0 1019.2 -- 83
2020-10-28 07:00:00 12.8 0 Calma -- -- 0 1018.5 -- 86
2020-10-28 06:00:00 12.9 0 Calma 6 Norte 0 1018.2 -- 81
2020-10-28 05:00:00 12.8 3 Norte 7 Noroeste 0 1017.8 -- 78
2020-10-28 04:00:00 13.1 3 Norte 6 Nordeste 0 1017.6 -- 76
2020-10-28 03:00:00 13.4 4 Nordeste 9 Nordeste 0 1017.7 -- 71
2020-10-28 02:00:00 13.4 4 Norte 7 Norte 0 1017.7 -- 71
2020-10-28 01:00:00 13.3 0 Calma 8 Nordeste 0 1018 -- 73
2020-10-28 00:00:00 13.7 0 Calma 5 Norte 0 1018.1 -- 71
2020-10-27 23:00:00 14.3 3 Nordeste 5 Noroeste 0 1018.3 -- 68
2020-10-27 22:00:00 15.1 4 Norte 6 Noroeste 0 1018.3 -- 63
2020-10-27 21:00:00 15.6 0 Calma 7 Oeste 0 1017.9 -- 64
2020-10-27 20:00:00 16.5 2 Noroeste 9 Noroeste 0 1017.5 -- 56
2020-10-27 19:00:00 16.9 0 Calma 8 Oeste 0 1017.2 -- 54
2020-10-27 18:00:00 17.7 3 Oeste 18 Sudoeste 0 1016.7 -- 49
2020-10-27 17:00:00 18.5 9 Sudoeste 21 Sudoeste 0 1016.1 -- 49
2020-10-27 16:00:00 19.6 6 Sudoeste 25 Sudoeste 0 1016 -- 43
2020-10-27 15:00:00 19.9 7 Sudoeste 23 Sudoeste 0 1016.1 -- 43
2020-10-27 14:00:00 20.4 5 Oeste 19 Sudoeste 0 1016.3 -- 41
2020-10-27 13:00:00 21.6 7 Oeste 19 Sudoeste 0 1016.7 -- 37
2020-10-27 12:00:00 20.6 2 Oeste 26 Sudoeste 0 1017.6 -- 36
2020-10-27 11:00:00 19.5 7 Noroeste 27 Noroeste 0 1017.6 -- 40
2020-10-27 10:00:00 18.9 10 Noroeste 31 Noroeste 0 1017.6 -- 44
2020-10-27 09:00:00 18.3 7 Noroeste 18 Noroeste 0 1017.1 -- 45
2020-10-27 08:00:00 15.4 2 Oeste 7 Sudoeste 0 1016.6 -- 55
2020-10-27 07:00:00 14 2 Sudoeste 5 Sudoeste 0 1016 -- 59
2020-10-27 06:00:00 14.9 3 Sudoeste 7 Sur 0 1015.9 -- 57
2020-10-27 05:00:00 15.9 3 Sur 9 Sudoeste 0 1015.6 -- 53
2020-10-27 04:00:00 16.5 3 Sudoeste 12 Oeste 0 1015.7 -- 50
2020-10-27 03:00:00 16.9 5 Oeste 20 Noroeste 0 1015.9 -- 47
2020-10-27 02:00:00 16.8 4 Noroeste 15 Noroeste 0 1016.2 -- 44
2020-10-27 01:00:00 17.5 4 Noroeste 20 Noroeste 0 1016.1 -- 45
2020-10-27 00:00:00 17.8 6 Noroeste 31 Norte 0 1016.3 -- 42